Ash Shuwayfat, Lebanon
Current Conditions -  °F | °C
As of 4:00 PM on Wednesday 22 Oct 2014 (Local Time) from OLBA Reporting Station
Broken Clouds Broken Clouds  
Wind Chill: 77°   Ceiling: 8000
Heat Index: 78°   Visibility: 5mi
Dew Point: 54°   Wind: 12mph
Humidity: 44%   Direction: 10°N
Pressure: 30"   Gusts: NA
Location:  33.81°N, 35.52°E
Report Text: OLBA 221300Z 01010KT 8000 BKN080 FEW200 25/12 Q1016
Loading
Personal Weather Stations






























Interactive Weather Map
Tropical Storm Tracking
New forecast layout! Learn more

10-Day Weather Forecast

Advertisements
Track Severe Weather on mobile